sensor_id;sensor_type;location;lat;lon;timestamp;pressure;altitude;pressure_sealevel;temperature;humidity
30152;BME280;16963;26.018;-80.216;2022-07-15T00:02:30;101949.06;;;32.43;41.01
30152;BME280;16963;26.018;-80.216;2022-07-15T00:05:22;101958.19;;;32.42;40.65
30152;BME280;16963;26.018;-80.216;2022-07-15T00:07:49;101945.34;;;32.44;40.68
30152;BME280;16963;26.018;-80.216;2022-07-15T00:10:17;101950.78;;;32.44;40.66
30152;BME280;16963;26.018;-80.216;2022-07-15T00:15:16;101941.38;;;32.48;39.56
30152;BME280;16963;26.018;-80.216;2022-07-15T00:17:44;101941.38;;;32.48;39.31
30152;BME280;16963;26.018;-80.216;2022-07-15T00:20:11;101950.25;;;32.50;39.35
30152;BME280;16963;26.018;-80.216;2022-07-15T00:22:43;101943.69;;;32.53;38.80
30152;BME280;16963;26.018;-80.216;2022-07-15T00:25:12;101947.31;;;32.53;37.75
30152;BME280;16963;26.018;-80.216;2022-07-15T00:30:33;101933.72;;;32.53;37.60
30152;BME280;16963;26.018;-80.216;2022-07-15T00:33:01;101928.00;;;32.56;37.63
30152;BME280;16963;26.018;-80.216;2022-07-15T00:35:29;101929.47;;;32.60;37.56
30152;BME280;16963;26.018;-80.216;2022-07-15T00:37:57;101917.19;;;32.66;37.44
30152;BME280;16963;26.018;-80.216;2022-07-15T00:40:26;101921.50;;;32.69;37.36
30152;BME280;16963;26.018;-80.216;2022-07-15T00:42:53;101934.34;;;32.67;36.93
30152;BME280;16963;26.018;-80.216;2022-07-15T00:45:23;101939.06;;;32.65;37.07
30152;BME280;16963;26.018;-80.216;2022-07-15T00:47:52;101945.22;;;32.67;37.06
30152;BME280;16963;26.018;-80.216;2022-07-15T00:52:55;101958.09;;;32.65;37.24
30152;BME280;16963;26.018;-80.216;2022-07-15T00:55:23;101960.38;;;32.59;37.71
30152;BME280;16963;26.018;-80.216;2022-07-15T00:57:51;101972.84;;;32.51;38.02
30152;BME280;16963;26.018;-80.216;2022-07-15T01:00:22;101975.97;;;32.46;37.52
30152;BME280;16963;26.018;-80.216;2022-07-15T01:02:49;101971.06;;;32.40;38.28
30152;BME280;16963;26.018;-80.216;2022-07-15T01:05:19;101978.28;;;32.30;38.78
30152;BME280;16963;26.018;-80.216;2022-07-15T01:07:48;101977.09;;;32.23;39.54
30152;BME280;16963;26.018;-80.216;2022-07-15T01:10:20;101977.63;;;32.16;40.82
30152;BME280;16963;26.018;-80.216;2022-07-15T01:12:49;101975.44;;;32.10;40.28
30152;BME280;16963;26.018;-80.216;2022-07-15T01:15:22;101977.94;;;32.02;41.03
30152;BME280;16963;26.018;-80.216;2022-07-15T01:20:03;101971.53;;;31.92;41.95
30152;BME280;16963;26.018;-80.216;2022-07-15T01:22:37;101983.25;;;31.92;42.67
30152;BME280;16963;26.018;-80.216;2022-07-15T01:25:04;101985.81;;;31.94;43.03
30152;BME280;16963;26.018;-80.216;2022-07-15T01:27:34;101986.84;;;31.93;42.53
30152;BME280;16963;26.018;-80.216;2022-07-15T01:30:02;101987.06;;;31.90;42.69
30152;BME280;16963;26.018;-80.216;2022-07-15T01:32:29;101992.66;;;31.88;43.44
30152;BME280;16963;26.018;-80.216;2022-07-15T01:34:57;101982.19;;;31.84;43.68
30152;BME280;16963;26.018;-80.216;2022-07-15T01:37:27;101985.16;;;31.80;44.31
30152;BME280;16963;26.018;-80.216;2022-07-15T01:41:22;101987.25;;;31.77;44.45
30152;BME280;16963;26.018;-80.216;2022-07-15T01:43:50;101985.41;;;31.77;44.36
30152;BME280;16963;26.018;-80.216;2022-07-15T01:46:19;101997.97;;;31.78;44.97
30152;BME280;16963;26.018;-80.216;2022-07-15T01:48:49;101997.59;;;31.83;45.28
30152;BME280;16963;26.018;-80.216;2022-07-15T01:51:44;102003.38;;;31.90;45.66
30152;BME280;16963;26.018;-80.216;2022-07-15T01:54:11;102012.25;;;31.92;45.31
30152;BME280;16963;26.018;-80.216;2022-07-15T01:56:44;102007.53;;;31.94;45.38
30152;BME280;16963;26.018;-80.216;2022-07-15T01:59:51;102004.84;;;31.94;45.64
30152;BME280;16963;26.018;-80.216;2022-07-15T02:02:29;102014.72;;;31.95;45.64
30152;BME280;16963;26.018;-80.216;2022-07-15T02:04:56;102012.72;;;31.97;45.98
30152;BME280;16963;26.018;-80.216;2022-07-15T02:07:24;102016.44;;;31.96;46.06
30152;BME280;16963;26.018;-80.216;2022-07-15T02:09:51;102001.88;;;31.97;46.10
30152;BME280;16963;26.018;-80.216;2022-07-15T02:12:19;102001.13;;;31.95;46.21
30152;BME280;16963;26.018;-80.216;2022-07-15T02:14:53;102005.84;;;31.93;46.51
30152;BME280;16963;26.018;-80.216;2022-07-15T02:17:26;102018.41;;;31.94;46.30
30152;BME280;16963;26.018;-80.216;2022-07-15T02:20:08;102028.28;;;31.95;46.38
30152;BME280;16963;26.018;-80.216;2022-07-15T02:25:15;102042.09;;;31.92;46.63
30152;BME280;16963;26.018;-80.216;2022-07-15T02:27:44;102054.81;;;31.91;46.56
30152;BME280;16963;26.018;-80.216;2022-07-15T02:30:11;102057.53;;;31.91;47.04
30152;BME280;16963;26.018;-80.216;2022-07-15T02:32:47;102051.25;;;31.91;46.79
30152;BME280;16963;26.018;-80.216;2022-07-15T02:35:15;102058.66;;;31.89;47.08
30152;BME280;16963;26.018;-80.216;2022-07-15T02:37:43;102056.91;;;31.88;47.12
30152;BME280;16963;26.018;-80.216;2022-07-15T02:40:10;102069.53;;;31.89;47.60
30152;BME280;16963;26.018;-80.216;2022-07-15T02:42:38;102062.34;;;31.88;47.33
30152;BME280;16963;26.018;-80.216;2022-07-15T02:47:11;102065.81;;;31.90;47.56
30152;BME280;16963;26.018;-80.216;2022-07-15T02:49:40;102064.72;;;31.92;47.79
30152;BME280;16963;26.018;-80.216;2022-07-15T02:52:09;102064.72;;;31.92;47.55
30152;BME280;16963;26.018;-80.216;2022-07-15T02:54:40;102073.81;;;31.91;47.59
30152;BME280;16963;26.018;-80.216;2022-07-15T02:57:09;102070.25;;;31.91;48.13
30152;BME280;16963;26.018;-80.216;2022-07-15T02:59:37;102078.53;;;31.89;48.62
30152;BME280;16963;26.018;-80.216;2022-07-15T03:02:04;102069.78;;;31.86;48.58
30152;BME280;16963;26.018;-80.216;2022-07-15T03:04:31;102070.88;;;31.83;48.67
30152;BME280;16963;26.018;-80.216;2022-07-15T03:09:37;102082.66;;;31.61;48.97
30152;BME280;16963;26.018;-80.216;2022-07-15T03:12:05;102076.50;;;31.48;49.02
30152;BME280;16963;26.018;-80.216;2022-07-15T03:14:32;102072.03;;;31.35;48.54
30152;BME280;16963;26.018;-80.216;2022-07-15T03:17:02;102072.53;;;31.29;49.53
30152;BME280;16963;26.018;-80.216;2022-07-15T03:19:29;102067.34;;;31.26;49.36
30152;BME280;16963;26.018;-80.216;2022-07-15T03:21:57;102067.59;;;31.23;49.57
30152;BME280;16963;26.018;-80.216;2022-07-15T03:24:24;102075.00;;;31.21;49.04
30152;BME280;16963;26.018;-80.216;2022-07-15T03:26:55;102064.38;;;31.18;48.97
30152;BME280;16963;26.018;-80.216;2022-07-15T03:29:48;102064.38;;;31.18;48.96
30152;BME280;16963;26.018;-80.216;2022-07-15T03:32:17;102065.38;;;31.17;49.19
30152;BME280;16963;26.018;-80.216;2022-07-15T03:34:48;102059.94;;;31.17;49.99
30152;BME280;16963;26.018;-80.216;2022-07-15T03:37:21;102063.63;;;31.16;49.94
30152;BME280;16963;26.018;-80.216;2022-07-15T03:39:49;102055.63;;;31.14;49.84
30152;BME280;16963;26.018;-80.216;2022-07-15T03:42:16;102048.63;;;31.12;50.16
30152;BME280;16963;26.018;-80.216;2022-07-15T03:44:45;102038.13;;;31.07;50.11
30152;BME280;16963;26.018;-80.216;2022-07-15T03:47:12;102038.25;;;31.06;50.25
30152;BME280;16963;26.018;-80.216;2022-07-15T03:49:38;102032.84;;;31.06;50.21
30152;BME280;16963;26.018;-80.216;2022-07-15T03:52:17;102030.88;;;31.08;50.33
30152;BME280;16963;26.018;-80.216;2022-07-15T03:54:44;102025.28;;;31.09;50.57
30152;BME280;16963;26.018;-80.216;2022-07-15T03:57:11;102034.06;;;31.13;50.64
30152;BME280;16963;26.018;-80.216;2022-07-15T03:59:38;102035.78;;;31.14;50.21
30152;BME280;16963;26.018;-80.216;2022-07-15T04:02:07;102029.38;;;31.15;50.40
30152;BME280;16963;26.018;-80.216;2022-07-15T04:04:34;102030.34;;;31.14;50.48
30152;BME280;16963;26.018;-80.216;2022-07-15T04:07:03;102026.78;;;31.13;51.05
30152;BME280;16963;26.018;-80.216;2022-07-15T04:09:30;102023.22;;;31.13;51.25
30152;BME280;16963;26.018;-80.216;2022-07-15T04:14:13;102006.09;;;31.12;51.33
30152;BME280;16963;26.018;-80.216;2022-07-15T04:16:43;102008.91;;;31.11;51.60
30152;BME280;16963;26.018;-80.216;2022-07-15T04:19:23;102001.78;;;31.10;51.80
30152;BME280;16963;26.018;-80.216;2022-07-15T04:21:55;101980.22;;;31.08;51.45
30152;BME280;16963;26.018;-80.216;2022-07-15T04:24:23;101955.91;;;31.07;51.73
30152;BME280;16963;26.018;-80.216;2022-07-15T04:26:50;101950.75;;;31.04;52.26
30152;BME280;16963;26.018;-80.216;2022-07-15T04:29:17;101930.91;;;31.03;52.35
30152;BME280;16963;26.018;-80.216;2022-07-15T04:31:45;101931.03;;;31.02;52.45
30152;BME280;16963;26.018;-80.216;2022-07-15T04:36:24;101934.25;;;30.95;52.56
30152;BME280;16963;26.018;-80.216;2022-07-15T04:38:52;101936.22;;;30.93;52.28
30152;BME280;16963;26.018;-80.216;2022-07-15T04:41:22;101940.16;;;30.89;52.39
30152;BME280;16963;26.018;-80.216;2022-07-15T04:43:50;101921.38;;;30.86;52.53
30152;BME280;16963;26.018;-80.216;2022-07-15T04:46:17;101917.94;;;30.84;52.64
30152;BME280;16963;26.018;-80.216;2022-07-15T04:48:50;101912.78;;;30.81;52.89
30152;BME280;16963;26.018;-80.216;2022-07-15T04:51:35;101910.31;;;30.78;52.83
30152;BME280;16963;26.018;-80.216;2022-07-15T04:54:03;101918.69;;;30.75;52.88
30152;BME280;16963;26.018;-80.216;2022-07-15T04:56:36;101916.25;;;30.72;53.22
30152;BME280;16963;26.018;-80.216;2022-07-15T04:59:05;101913.75;;;30.69;53.42
30152;BME280;16963;26.018;-80.216;2022-07-15T05:01:43;101915.84;;;30.65;53.35
30152;BME280;16963;26.018;-80.216;2022-07-15T05:04:13;101918.06;;;30.60;53.31
30152;BME280;16963;26.018;-80.216;2022-07-15T05:06:42;101919.41;;;30.54;53.66
30152;BME280;16963;26.018;-80.216;2022-07-15T05:09:09;101921.63;;;30.49;53.74
30152;BME280;16963;26.018;-80.216;2022-07-15T05:11:37;101927.53;;;30.43;53.39
30152;BME280;16963;26.018;-80.216;2022-07-15T05:14:04;101922.84;;;30.34;53.59
30152;BME280;16963;26.018;-80.216;2022-07-15T05:16:31;101937.06;;;30.25;53.48
30152;BME280;16963;26.018;-80.216;2022-07-15T05:18:59;101933.13;;;30.17;53.23
30152;BME280;16963;26.018;-80.216;2022-07-15T05:23:09;101930.34;;;30.06;53.68
30152;BME280;16963;26.018;-80.216;2022-07-15T05:25:43;101934.81;;;30.07;54.11
30152;BME280;16963;26.018;-80.216;2022-07-15T05:28:11;101937.16;;;30.12;54.08
30152;BME280;16963;26.018;-80.216;2022-07-15T05:30:43;101928.56;;;30.18;54.36
30152;BME280;16963;26.018;-80.216;2022-07-15T05:33:15;101926.34;;;30.23;54.39
30152;BME280;16963;26.018;-80.216;2022-07-15T05:35:44;101930.69;;;30.26;54.37
30152;BME280;16963;26.018;-80.216;2022-07-15T05:38:23;101920.47;;;30.29;54.43
30152;BME280;16963;26.018;-80.216;2022-07-15T05:40:52;101930.25;;;30.32;54.53
30152;BME280;16963;26.018;-80.216;2022-07-15T05:43:37;101936.41;;;30.34;54.83
30152;BME280;16963;26.018;-80.216;2022-07-15T05:46:05;101926.31;;;30.36;54.97
30152;BME280;16963;26.018;-80.216;2022-07-15T05:48:43;101935.16;;;30.38;54.82
30152;BME280;16963;26.018;-80.216;2022-07-15T05:51:12;101926.31;;;30.36;55.25
30152;BME280;16963;26.018;-80.216;2022-07-15T05:53:42;101928.03;;;30.37;55.18
30152;BME280;16963;26.018;-80.216;2022-07-15T05:56:10;101931.47;;;30.39;55.19
30152;BME280;16963;26.018;-80.216;2022-07-15T05:58:37;101927.91;;;30.38;55.21
30152;BME280;16963;26.018;-80.216;2022-07-15T06:01:05;101927.03;;;30.38;55.59
30152;BME280;16963;26.018;-80.216;2022-07-15T06:03:37;101920.91;;;30.36;55.78
30152;BME280;16963;26.018;-80.216;2022-07-15T06:06:04;101918.19;;;30.36;55.77
30152;BME280;16963;26.018;-80.216;2022-07-15T06:08:43;101908.56;;;30.32;55.67
30152;BME280;16963;26.018;-80.216;2022-07-15T06:11:11;101901.88;;;30.25;56.10
30152;BME280;16963;26.018;-80.216;2022-07-15T06:13:39;101905.78;;;30.20;56.15
30152;BME280;16963;26.018;-80.216;2022-07-15T06:16:10;101909.50;;;30.19;56.44
30152;BME280;16963;26.018;-80.216;2022-07-15T06:18:38;101907.53;;;30.22;56.34
30152;BME280;16963;26.018;-80.216;2022-07-15T06:21:05;101908.28;;;30.24;56.29
30152;BME280;16963;26.018;-80.216;2022-07-15T06:23:33;101907.53;;;30.22;56.38
30152;BME280;16963;26.018;-80.216;2022-07-15T06:26:00;101915.13;;;30.16;56.59
30152;BME280;16963;26.018;-80.216;2022-07-15T06:29:41;101914.88;;;30.08;56.52
30152;BME280;16963;26.018;-80.216;2022-07-15T06:32:09;101913.25;;;30.06;56.24
30152;BME280;16963;26.018;-80.216;2022-07-15T06:34:38;101918.69;;;30.06;56.38
30152;BME280;16963;26.018;-80.216;2022-07-15T06:37:05;101905.03;;;30.07;55.63
30152;BME280;16963;26.018;-80.216;2022-07-15T06:39:34;101894.19;;;30.07;53.92
30152;BME280;16963;26.018;-80.216;2022-07-15T06:42:03;101897.88;;;30.06;54.88
30152;BME280;16963;26.018;-80.216;2022-07-15T06:44:31;101902.69;;;30.03;54.86
30152;BME280;16963;26.018;-80.216;2022-07-15T06:47:05;101896.63;;;29.99;54.78
30152;BME280;16963;26.018;-80.216;2022-07-15T06:49:34;101897.63;;;29.98;55.32
30152;BME280;16963;26.018;-80.216;2022-07-15T06:52:00;101901.78;;;29.91;52.76
30152;BME280;16963;26.018;-80.216;2022-07-15T06:54:39;101898.94;;;29.68;54.45
30152;BME280;16963;26.018;-80.216;2022-07-15T06:57:08;101883.50;;;29.46;54.77
30152;BME280;16963;26.018;-80.216;2022-07-15T06:59:44;101886.00;;;29.36;55.82
30152;BME280;16963;26.018;-80.216;2022-07-15T07:02:11;101893.50;;;29.33;56.70
30152;BME280;16963;26.018;-80.216;2022-07-15T07:04:40;101883.75;;;29.30;57.52
30152;BME280;16963;26.018;-80.216;2022-07-15T07:07:11;101884.50;;;29.32;58.54
30152;BME280;16963;26.018;-80.216;2022-07-15T07:09:38;101873.69;;;29.32;59.12
30152;BME280;16963;26.018;-80.216;2022-07-15T07:12:06;101871.22;;;29.29;59.60
30152;BME280;16963;26.018;-80.216;2022-07-15T07:15:35;101882.16;;;29.28;60.06
30152;BME280;16963;26.018;-80.216;2022-07-15T07:18:10;101893.97;;;29.27;60.86
30152;BME280;16963;26.018;-80.216;2022-07-15T07:20:37;101876.84;;;29.26;60.85
30152;BME280;16963;26.018;-80.216;2022-07-15T07:23:08;101878.09;;;29.22;60.91
30152;BME280;16963;26.018;-80.216;2022-07-15T07:25:35;101865.78;;;29.18;61.39
30152;BME280;16963;26.018;-80.216;2022-07-15T07:28:02;101870.63;;;29.13;61.68
30152;BME280;16963;26.018;-80.216;2022-07-15T07:30:30;101870.09;;;29.08;61.65
30152;BME280;16963;26.018;-80.216;2022-07-15T07:32:57;101867.59;;;29.05;61.85
30152;BME280;16963;26.018;-80.216;2022-07-15T07:35:39;101857.78;;;29.04;61.99
30152;BME280;16963;26.018;-80.216;2022-07-15T07:40:43;101858.22;;;28.97;61.92
30152;BME280;16963;26.018;-80.216;2022-07-15T07:43:11;101848.72;;;28.92;62.07
30152;BME280;16963;26.018;-80.216;2022-07-15T07:45:38;101852.53;;;28.89;62.15
30152;BME280;16963;26.018;-80.216;2022-07-15T07:48:05;101850.78;;;28.88;62.18
30152;BME280;16963;26.018;-80.216;2022-07-15T07:50:33;101852.75;;;28.86;62.29
30152;BME280;16963;26.018;-80.216;2022-07-15T07:53:00;101856.53;;;28.84;62.34
30152;BME280;16963;26.018;-80.216;2022-07-15T07:55:29;101852.97;;;28.83;62.51
30152;BME280;16963;26.018;-80.216;2022-07-15T07:57:57;101854.91;;;28.81;62.68
30152;BME280;16963;26.018;-80.216;2022-07-15T08:00:26;101854.06;;;28.81;62.57
30152;BME280;16963;26.018;-80.216;2022-07-15T08:02:53;101849.63;;;28.79;62.83
30152;BME280;16963;26.018;-80.216;2022-07-15T08:05:32;101851.69;;;28.76;63.02
30152;BME280;16963;26.018;-80.216;2022-07-15T08:08:09;101844.56;;;28.75;63.18
30152;BME280;16963;26.018;-80.216;2022-07-15T08:10:38;101844.78;;;28.72;63.07
30152;BME280;16963;26.018;-80.216;2022-07-15T08:13:13;101836.13;;;28.67;63.07
30152;BME280;16963;26.018;-80.216;2022-07-15T08:15:40;101832.06;;;28.61;63.24
30152;BME280;16963;26.018;-80.216;2022-07-15T08:18:09;101834.31;;;28.54;63.49
30152;BME280;16963;26.018;-80.216;2022-07-15T08:20:37;101836.50;;;28.49;63.62
30152;BME280;16963;26.018;-80.216;2022-07-15T08:23:04;101849.31;;;28.46;63.70
30152;BME280;16963;26.018;-80.216;2022-07-15T08:28:29;101844.47;;;28.38;63.97
30152;BME280;16963;26.018;-80.216;2022-07-15T08:31:17;101844.91;;;28.32;64.09
30152;BME280;16963;26.018;-80.216;2022-07-15T08:33:46;101842.31;;;28.30;64.18
30152;BME280;16963;26.018;-80.216;2022-07-15T08:36:13;101831.63;;;28.29;64.36
30152;BME280;16963;26.018;-80.216;2022-07-15T08:38:40;101836.16;;;28.28;64.25
30152;BME280;16963;26.018;-80.216;2022-07-15T08:41:09;101830.88;;;28.27;64.23
30152;BME280;16963;26.018;-80.216;2022-07-15T08:43:38;101835.75;;;28.22;64.31
30152;BME280;16963;26.018;-80.216;2022-07-15T08:46:05;101840.47;;;28.18;64.47
30152;BME280;16963;26.018;-80.216;2022-07-15T08:48:35;101836.38;;;28.12;64.90
30152;BME280;16963;26.018;-80.216;2022-07-15T08:51:05;101835.63;;;28.10;64.97
30152;BME280;16963;26.018;-80.216;2022-07-15T08:53:45;101844.69;;;28.09;65.13
30152;BME280;16963;26.018;-80.216;2022-07-15T08:56:12;101848.38;;;28.08;65.18
30152;BME280;16963;26.018;-80.216;2022-07-15T08:58:40;101843.94;;;28.07;65.27
30152;BME280;16963;26.018;-80.216;2022-07-15T09:01:25;101854.72;;;28.07;65.39
30152;BME280;16963;26.018;-80.216;2022-07-15T09:03:52;101845.78;;;28.07;65.67
30152;BME280;16963;26.018;-80.216;2022-07-15T09:06:33;101841.47;;;28.04;65.65
30152;BME280;16963;26.018;-80.216;2022-07-15T09:14:25;101849.75;;;28.01;66.04
30152;BME280;16963;26.018;-80.216;2022-07-15T09:22:20;101822.00;;;27.99;66.01
30152;BME280;16963;26.018;-80.216;2022-07-15T09:25:07;101822.00;;;27.99;66.00
30152;BME280;16963;26.018;-80.216;2022-07-15T09:27:36;101824.72;;;27.99;65.77
30152;BME280;16963;26.018;-80.216;2022-07-15T09:30:12;101819.53;;;27.96;66.17
30152;BME280;16963;26.018;-80.216;2022-07-15T09:32:59;101824.19;;;27.94;66.23
30152;BME280;16963;26.018;-80.216;2022-07-15T09:35:45;101825.38;;;27.90;66.40
30152;BME280;16963;26.018;-80.216;2022-07-15T09:39:33;101833.66;;;27.87;66.52
30152;BME280;16963;26.018;-80.216;2022-07-15T09:42:19;101830.16;;;27.85;66.57
30152;BME280;16963;26.018;-80.216;2022-07-15T09:44:47;101832.84;;;27.85;66.69
30152;BME280;16963;26.018;-80.216;2022-07-15T09:47:17;101830.09;;;27.86;66.73
30152;BME280;16963;26.018;-80.216;2022-07-15T09:49:45;101835.50;;;27.86;66.69
30152;BME280;16963;26.018;-80.216;2022-07-15T09:52:14;101830.09;;;27.86;66.92
30152;BME280;16963;26.018;-80.216;2022-07-15T09:54:43;101831.94;;;27.86;67.19
30152;BME280;16963;26.018;-80.216;2022-07-15T10:00:02;101827.47;;;27.85;67.29
30152;BME280;16963;26.018;-80.216;2022-07-15T10:02:30;101830.28;;;27.83;67.21
30152;BME280;16963;26.018;-80.216;2022-07-15T10:04:58;101834.78;;;27.83;67.57
30152;BME280;16963;26.018;-80.216;2022-07-15T10:07:25;101841.19;;;27.82;67.22
30152;BME280;16963;26.018;-80.216;2022-07-15T10:09:55;101849.25;;;27.82;67.71
30152;BME280;16963;26.018;-80.216;2022-07-15T10:12:30;101841.19;;;27.82;67.38
30152;BME280;16963;26.018;-80.216;2022-07-15T10:26:16;101846.00;;;27.76;67.52
30152;BME280;16963;26.018;-80.216;2022-07-15T10:28:57;101847.00;;;27.75;67.52
30152;BME280;16963;26.018;-80.216;2022-07-15T10:31:26;101850.53;;;27.76;67.72
30152;BME280;16963;26.018;-80.216;2022-07-15T10:36:39;101849.59;;;27.77;67.63
30152;BME280;16963;26.018;-80.216;2022-07-15T10:39:10;101844.94;;;27.79;67.51
30152;BME280;16963;26.018;-80.216;2022-07-15T10:41:57;101844.81;;;27.81;67.57
30152;BME280;16963;26.018;-80.216;2022-07-15T10:44:36;101850.81;;;27.86;67.73
30152;BME280;16963;26.018;-80.216;2022-07-15T10:54:08;101857.94;;;28.00;69.87
30152;BME280;16963;26.018;-80.216;2022-07-15T10:56:44;101858.59;;;28.03;70.28
30152;BME280;16963;26.018;-80.216;2022-07-15T10:59:21;101863.03;;;28.04;70.21
30152;BME280;16963;26.018;-80.216;2022-07-15T11:04:31;101872.00;;;28.05;70.96
30152;BME280;16963;26.018;-80.216;2022-07-15T11:12:10;101876.53;;;28.04;71.40
30152;BME280;16963;26.018;-80.216;2022-07-15T11:14:53;101880.19;;;28.03;71.48
30152;BME280;16963;26.018;-80.216;2022-07-15T11:17:40;101878.47;;;28.02;71.36
30152;BME280;16963;26.018;-80.216;2022-07-15T11:20:19;101877.06;;;28.09;71.91
30152;BME280;16963;26.018;-80.216;2022-07-15T11:22:53;101880.09;;;28.17;72.06
30152;BME280;16963;26.018;-80.216;2022-07-15T11:30:42;101884.31;;;28.34;72.85
30152;BME280;16963;26.018;-80.216;2022-07-15T11:33:31;101893.09;;;28.38;72.84
30152;BME280;16963;26.018;-80.216;2022-07-15T11:36:02;101886.25;;;28.45;72.65
30152;BME280;16963;26.018;-80.216;2022-07-15T11:38:38;101882.59;;;28.46;72.84
30152;BME280;16963;26.018;-80.216;2022-07-15T11:41:06;101878.72;;;28.50;73.04
30152;BME280;16963;26.018;-80.216;2022-07-15T11:44:09;101875.72;;;28.55;73.02
30152;BME280;16963;26.018;-80.216;2022-07-15T11:46:56;101871.69;;;28.61;72.75
30152;BME280;16963;26.018;-80.216;2022-07-15T11:49:38;101866.84;;;28.66;72.65
30152;BME280;16963;26.018;-80.216;2022-07-15T11:52:13;101870.81;;;28.73;72.04
30152;BME280;16963;26.018;-80.216;2022-07-15T11:55:05;101870.69;;;28.87;71.35
30152;BME280;16963;26.018;-80.216;2022-07-15T11:57:33;101877.25;;;28.96;70.15
30152;BME280;16963;26.018;-80.216;2022-07-15T12:00:01;101880.16;;;29.06;70.09
30152;BME280;16963;26.018;-80.216;2022-07-15T12:02:39;101890.31;;;29.15;69.94
30152;BME280;16963;26.018;-80.216;2022-07-15T12:05:08;101898.72;;;29.23;69.36
30152;BME280;16963;26.018;-80.216;2022-07-15T12:07:41;101889.41;;;29.27;69.12
30152;BME280;16963;26.018;-80.216;2022-07-15T12:10:11;101903.56;;;29.31;68.88
30152;BME280;16963;26.018;-80.216;2022-07-15T12:12:57;101911.53;;;29.32;68.39
30152;BME280;16963;26.018;-80.216;2022-07-15T12:15:26;101910.34;;;29.36;68.30
30152;BME280;16963;26.018;-80.216;2022-07-15T12:17:54;101916.63;;;29.37;68.29
30152;BME280;16963;26.018;-80.216;2022-07-15T12:20:23;101917.25;;;29.41;67.85
30152;BME280;16963;26.018;-80.216;2022-07-15T12:25:33;101912.44;;;29.57;67.78
30152;BME280;16963;26.018;-80.216;2022-07-15T12:28:01;101918.44;;;29.73;67.77
30152;BME280;16963;26.018;-80.216;2022-07-15T12:30:35;101919.00;;;29.90;67.27
30152;BME280;16963;26.018;-80.216;2022-07-15T12:33:21;101919.28;;;29.98;66.52
30152;BME280;16963;26.018;-80.216;2022-07-15T12:36:14;101908.69;;;30.06;66.09
30152;BME280;16963;26.018;-80.216;2022-07-15T12:41:31;101914.28;;;30.16;64.06
30152;BME280;16963;26.018;-80.216;2022-07-15T12:44:01;101912.78;;;30.12;64.01
30152;BME280;16963;26.018;-80.216;2022-07-15T12:46:59;101910.53;;;30.30;63.09
30152;BME280;16963;26.018;-80.216;2022-07-15T12:49:39;101910.53;;;30.52;61.83
30152;BME280;16963;26.018;-80.216;2022-07-15T12:52:20;101914.00;;;30.77;61.13
30152;BME280;16963;26.018;-80.216;2022-07-15T12:54:52;101906.38;;;31.05;60.00
30152;BME280;16963;26.018;-80.216;2022-07-15T13:00:05;101926.03;;;31.52;56.37
30152;BME280;16963;26.018;-80.216;2022-07-15T13:03:13;101936.28;;;31.80;54.35
30152;BME280;16963;26.018;-80.216;2022-07-15T13:05:53;101930.56;;;31.95;53.76
30152;BME280;16963;26.018;-80.216;2022-07-15T13:08:25;101938.63;;;32.17;55.45
30152;BME280;16963;26.018;-80.216;2022-07-15T13:10:56;101929.31;;;32.41;53.32
30152;BME280;16963;26.018;-80.216;2022-07-15T13:13:26;101928.00;;;32.56;52.77
30152;BME280;16963;26.018;-80.216;2022-07-15T13:15:55;101930.06;;;32.64;53.01
30152;BME280;16963;26.018;-80.216;2022-07-15T13:18:25;101927.19;;;32.66;51.76
30152;BME280;16963;26.018;-80.216;2022-07-15T13:22:09;101942.03;;;32.92;52.82
30152;BME280;16963;26.018;-80.216;2022-07-15T13:24:47;101947.94;;;32.97;51.44
30152;BME280;16963;26.018;-80.216;2022-07-15T13:27:15;101952.06;;;32.61;52.24
30152;BME280;16963;26.018;-80.216;2022-07-15T13:29:42;101946.03;;;32.15;53.54
30152;BME280;16963;26.018;-80.216;2022-07-15T13:32:11;101950.06;;;31.89;54.49
30152;BME280;16963;26.018;-80.216;2022-07-15T13:34:38;101948.31;;;31.67;55.13
30152;BME280;16963;26.018;-80.216;2022-07-15T13:37:06;101935.19;;;31.39;55.74
30152;BME280;16963;26.018;-80.216;2022-07-15T13:39:33;101932.72;;;31.14;56.63
30152;BME280;16963;26.018;-80.216;2022-07-15T13:42:01;101941.63;;;31.05;57.60
30152;BME280;16963;26.018;-80.216;2022-07-15T13:44:47;101924.63;;;31.03;58.48
30152;BME280;16963;26.018;-80.216;2022-07-15T13:49:46;101923.13;;;31.21;63.88
30152;BME280;16963;26.018;-80.216;2022-07-15T13:52:33;101931.72;;;31.49;65.22
30152;BME280;16963;26.018;-80.216;2022-07-15T13:55:00;101922.50;;;31.72;63.99
30152;BME280;16963;26.018;-80.216;2022-07-15T13:57:29;101922.03;;;31.99;64.69
30152;BME280;16963;26.018;-80.216;2022-07-15T13:59:57;101922.84;;;32.11;60.15
30152;BME280;16963;26.018;-80.216;2022-07-15T14:02:24;101923.69;;;32.12;58.77
30152;BME280;16963;26.018;-80.216;2022-07-15T14:04:52;101931.72;;;32.13;58.16
30152;BME280;16963;26.018;-80.216;2022-07-15T14:07:20;101944.94;;;32.28;57.58
30152;BME280;16963;26.018;-80.216;2022-07-15T14:10:02;101943.97;;;32.29;55.43
30152;BME280;16963;26.018;-80.216;2022-07-15T14:15:06;101939.69;;;32.26;55.48
30152;BME280;16963;26.018;-80.216;2022-07-15T14:17:34;101934.09;;;32.28;55.82
30152;BME280;16963;26.018;-80.216;2022-07-15T14:20:02;101945.75;;;32.18;55.77
30152;BME280;16963;26.018;-80.216;2022-07-15T14:22:30;101955.34;;;32.02;55.83
30152;BME280;16963;26.018;-80.216;2022-07-15T14:24:59;101954.50;;;32.01;56.64
30152;BME280;16963;26.018;-80.216;2022-07-15T14:27:27;101941.19;;;32.19;56.39
30152;BME280;16963;26.018;-80.216;2022-07-15T14:29:54;101947.22;;;32.65;56.48